createdAt,value
2019-04-23T00:02:14.257Z,3.00
2019-04-23T00:05:02.469Z,3.33
2019-04-23T00:10:33.215Z,3.17
2019-04-23T00:13:30.348Z,3.40
2019-04-23T00:18:56.082Z,3.43
2019-04-23T00:22:05.471Z,3.83
2019-04-23T00:27:50.123Z,3.80
2019-04-23T00:30:43.997Z,4.00
2019-04-23T00:33:25.571Z,3.43
2019-04-23T00:36:12.363Z,4.10
2019-04-23T00:38:55.826Z,4.03
2019-04-23T00:42:10.337Z,4.27
2019-04-23T00:44:45.935Z,4.10
2019-04-23T00:47:32.980Z,3.93
2019-04-23T00:50:24.046Z,4.03
2019-04-23T00:53:05.886Z,3.80
2019-04-23T00:56:04.139Z,3.80
2019-04-23T00:58:55.239Z,4.30
2019-04-23T01:01:41.210Z,4.20
2019-04-23T01:04:19.001Z,4.77
2019-04-23T01:07:07.565Z,4.70
2019-04-23T01:10:08.782Z,4.40
2019-04-23T01:12:51.659Z,4.30
2019-04-23T01:15:41.097Z,4.30
2019-04-23T01:18:45.910Z,4.60
2019-04-23T01:21:01.543Z,4.37
2019-04-23T01:24:14.118Z,4.40
2019-04-23T01:27:46.113Z,4.60
2019-04-23T01:30:19.859Z,4.83
2019-04-23T01:33:10.863Z,5.20
2019-04-23T01:36:16.249Z,5.60
2019-04-23T01:38:55.967Z,5.53
2019-04-23T01:41:50.791Z,5.57
2019-04-23T01:44:38.662Z,5.80
2019-04-23T01:47:19.979Z,6.30
2019-04-23T01:53:00.805Z,6.30
2019-04-23T01:55:49.794Z,5.93
2019-04-23T01:58:41.054Z,6.83
2019-04-23T02:01:19.164Z,7.00
2019-04-23T02:06:59.287Z,6.93
2019-04-23T02:09:52.796Z,6.80
2019-04-23T02:12:34.454Z,7.73
2019-04-23T02:15:26.547Z,7.03
2019-04-23T02:18:13.694Z,6.37
2019-04-23T02:20:59.572Z,7.53
2019-04-23T02:23:57.081Z,6.67
2019-04-23T02:27:05.260Z,7.50
2019-04-23T02:29:51.276Z,7.37
2019-04-23T02:32:29.641Z,7.70
2019-04-23T02:38:10.245Z,7.60
2019-04-23T02:41:04.706Z,7.47
2019-04-23T02:43:40.366Z,8.37
2019-04-23T02:46:20.963Z,7.73
2019-04-23T02:52:12.578Z,7.50
2019-04-23T02:57:47.648Z,7.80
2019-04-23T03:03:25.165Z,7.90
2019-04-23T03:09:00.457Z,8.13
2019-04-23T03:11:52.225Z,8.33
2019-04-23T03:14:56.061Z,8.17
2019-04-23T03:17:36.576Z,8.00
2019-04-23T03:23:25.129Z,7.63
2019-04-23T03:29:19.955Z,7.77
2019-04-23T03:40:21.480Z,9.03
2019-04-23T03:48:41.931Z,8.67
2019-04-23T03:51:26.069Z,9.10
2019-04-23T03:54:26.306Z,8.33
2019-04-23T03:57:13.365Z,9.40
2019-04-23T04:05:36.052Z,9.87
2019-04-23T04:08:17.969Z,9.43
2019-04-23T04:11:10.830Z,10.17
2019-04-23T04:14:01.140Z,10.23
2019-04-23T04:16:51.628Z,9.70
2019-04-23T04:28:03.575Z,9.73
2019-04-23T04:30:54.397Z,9.53
2019-04-23T04:39:08.063Z,9.93
2019-04-23T04:41:56.947Z,10.10
2019-04-23T04:50:15.418Z,10.87
2019-04-23T04:53:22.838Z,10.57
2019-04-23T04:56:07.628Z,11.43
2019-04-23T04:58:54.049Z,11.20
2019-04-23T05:01:29.590Z,10.57
2019-04-23T05:04:33.132Z,11.97
2019-04-23T05:12:46.857Z,11.87
2019-04-23T05:15:37.319Z,11.37
2019-04-23T05:21:20.393Z,11.53
2019-04-23T05:24:06.791Z,12.73
2019-04-23T05:26:38.753Z,11.53
2019-04-23T05:29:41.435Z,11.10
2019-04-23T05:32:29.081Z,11.80
2019-04-23T05:35:20.328Z,11.33
2019-04-23T05:41:03.972Z,12.03
2019-04-23T05:43:40.841Z,11.53
2019-04-23T05:46:37.702Z,11.50
2019-04-23T05:49:11.064Z,11.03
2019-04-23T05:52:04.028Z,12.50
2019-04-23T05:54:56.315Z,11.97
2019-04-23T05:57:39.166Z,13.43
2019-04-23T06:00:34.743Z,11.87
2019-04-23T06:03:16.283Z,11.63
2019-04-23T06:06:12.657Z,11.87
2019-04-23T06:08:53.151Z,12.33
2019-04-23T06:11:56.980Z,11.17
2019-04-23T06:14:30.791Z,11.70
2019-04-23T06:17:15.259Z,13.13
2019-04-23T06:28:29.838Z,11.37
2019-04-23T06:34:12.518Z,10.87
2019-04-23T06:36:55.527Z,11.97
2019-04-23T06:39:41.506Z,10.80
2019-04-23T06:42:30.747Z,11.17
2019-04-23T06:45:19.309Z,11.70
2019-04-23T06:48:10.622Z,10.43
2019-04-23T06:51:07.854Z,11.37
2019-04-23T06:53:43.131Z,10.83
2019-04-23T06:56:37.507Z,10.17
2019-04-23T07:02:13.552Z,10.33
2019-04-23T07:10:40.301Z,10.13
2019-04-23T07:13:21.189Z,10.83
2019-04-23T07:16:10.987Z,10.37
2019-04-23T07:19:04.627Z,10.53
2019-04-23T07:21:50.823Z,10.70
2019-04-23T07:24:39.809Z,10.53
2019-04-23T07:27:37.848Z,10.40
2019-04-23T07:30:13.645Z,9.60
2019-04-23T07:32:58.715Z,9.90
2019-04-23T07:35:52.238Z,10.13
2019-04-23T07:39:02.588Z,10.37
2019-04-23T07:45:24.049Z,9.57
2019-04-23T07:48:19.214Z,9.97
2019-04-23T07:51:20.946Z,10.10
2019-04-23T07:53:53.452Z,10.53
2019-04-23T07:56:43.062Z,9.53
2019-04-23T07:59:37.188Z,10.70
2019-04-23T08:02:21.950Z,10.60
2019-04-23T08:05:25.173Z,10.40
2019-04-23T08:07:58.820Z,11.07
2019-04-23T08:10:56.853Z,10.70
2019-04-23T08:13:39.857Z,10.77
2019-04-23T08:16:28.190Z,11.47
2019-04-23T08:19:25.308Z,10.83
2019-04-23T08:21:58.339Z,11.30
2019-04-23T08:25:26.439Z,11.60
2019-04-23T08:28:09.750Z,11.73
2019-04-23T08:30:46.525Z,11.20
2019-04-23T08:33:40.153Z,11.43
2019-04-23T08:36:27.295Z,11.03
2019-04-23T08:39:18.273Z,11.50
2019-04-23T08:42:21.674Z,9.77
2019-04-23T08:45:28.716Z,10.70
2019-04-23T08:48:18.211Z,11.40
2019-04-23T08:50:54.651Z,11.07
2019-04-23T08:53:40.975Z,12.03
2019-04-23T08:56:40.671Z,11.47
2019-04-23T08:59:36.847Z,10.97
2019-04-23T09:05:00.025Z,11.47
2019-04-23T09:07:54.118Z,12.63
2019-04-23T09:10:37.459Z,12.27
2019-04-23T09:16:08.873Z,12.20
2019-04-23T09:19:03.937Z,12.30
2019-04-23T09:21:59.200Z,12.33
2019-04-23T09:24:44.810Z,11.00
2019-04-23T09:27:28.855Z,10.60
2019-04-23T09:30:14.757Z,11.10
2019-04-23T09:33:26.341Z,11.97
2019-04-23T09:36:18.431Z,11.10
2019-04-23T09:39:12.906Z,11.77
2019-04-23T09:42:04.441Z,11.23
2019-04-23T09:45:18.884Z,10.87
2019-04-23T09:48:04.370Z,13.10
2019-04-23T09:50:54.796Z,11.67
2019-04-23T09:53:41.164Z,12.03
2019-04-23T09:56:37.768Z,11.23
2019-04-23T10:02:01.549Z,11.20
2019-04-23T10:04:48.731Z,11.90
2019-04-23T10:07:30.010Z,11.73
2019-04-23T10:10:08.280Z,11.57
2019-04-23T10:12:55.762Z,12.17
2019-04-23T10:15:45.796Z,11.30
2019-04-23T10:18:31.012Z,11.33
2019-04-23T10:21:19.366Z,12.00
2019-04-23T10:24:07.505Z,11.30
2019-04-23T10:26:53.981Z,11.13
2019-04-23T10:29:41.720Z,11.27
2019-04-23T10:32:29.755Z,11.30
2019-04-23T10:35:27.330Z,11.10
2019-04-23T10:38:10.367Z,12.17
2019-04-23T10:40:54.152Z,11.00
2019-04-23T10:43:44.568Z,11.93
2019-04-23T10:47:17.780Z,10.90
2019-04-23T10:50:26.050Z,11.37
2019-04-23T10:53:26.604Z,10.30
2019-04-23T10:56:10.140Z,10.87
2019-04-23T10:58:54.994Z,11.07
2019-04-23T11:01:43.464Z,10.60
2019-04-23T11:10:08.671Z,11.03
2019-04-23T11:13:09.300Z,10.90
2019-04-23T11:16:21.600Z,10.47
2019-04-23T11:18:53.573Z,9.97
2019-04-23T11:21:34.150Z,11.57
2019-04-23T11:24:33.915Z,11.67
2019-04-23T11:27:10.134Z,11.20
2019-04-23T11:30:01.808Z,11.33
2019-04-23T11:32:56.758Z,11.23
2019-04-23T11:35:39.942Z,10.27
2019-04-23T11:38:44.500Z,11.43
2019-04-23T11:41:09.656Z,10.63
2019-04-23T11:43:58.343Z,10.93
2019-04-23T11:50:56.017Z,11.70
2019-04-23T11:52:30.083Z,11.87
2019-04-23T11:55:17.676Z,11.33
2019-04-23T11:58:08.746Z,10.60
2019-04-23T12:01:24.455Z,9.30
2019-04-23T12:07:21.378Z,9.97
2019-04-23T12:10:31.665Z,10.00
2019-04-23T12:13:20.851Z,10.53
2019-04-23T12:16:00.577Z,10.93
2019-04-23T12:24:53.311Z,10.00
2019-04-23T12:27:30.554Z,9.00
2019-04-23T12:30:01.547Z,9.10
2019-04-23T12:32:57.206Z,8.83
2019-04-23T12:35:32.531Z,8.93
2019-04-23T12:38:25.493Z,9.77
2019-04-23T12:41:24.509Z,8.73
2019-04-23T12:44:10.935Z,9.17
2019-04-23T12:46:57.496Z,9.23
2019-04-23T12:50:13.678Z,9.67
2019-04-23T12:52:36.445Z,10.70
2019-04-23T12:55:23.419Z,9.13
2019-04-23T13:00:46.032Z,9.07
2019-04-23T13:03:41.547Z,8.40
2019-04-23T13:06:27.634Z,9.03
2019-04-23T13:09:33.142Z,9.10
2019-04-23T13:12:17.297Z,9.23
2019-04-23T13:14:57.356Z,9.57
2019-04-23T13:20:32.245Z,10.07
2019-04-23T13:23:22.095Z,9.50
2019-04-23T13:26:04.258Z,9.87
2019-04-23T13:29:07.619Z,9.30
2019-04-23T13:31:49.918Z,8.97
2019-04-23T13:37:38.652Z,8.60
2019-04-23T13:40:17.867Z,8.73
2019-04-23T13:48:36.599Z,8.20
2019-04-23T13:54:29.861Z,7.73
2019-04-23T13:59:56.238Z,7.63
2019-04-23T14:05:49.490Z,7.67
2019-04-23T14:14:25.476Z,8.30
2019-04-23T14:17:17.492Z,8.40
2019-04-23T14:20:03.822Z,9.23
2019-04-23T14:23:08.257Z,7.87
2019-04-23T14:25:45.393Z,8.83
2019-04-23T14:36:55.639Z,8.37
2019-04-23T14:39:32.027Z,8.80
2019-04-23T14:42:33.371Z,8.67
2019-04-23T14:45:45.176Z,7.80
2019-04-23T14:51:02.527Z,8.73
2019-04-23T14:53:41.031Z,8.07
2019-04-23T14:56:29.445Z,9.03
2019-04-23T14:59:11.003Z,8.57
2019-04-23T15:02:18.400Z,8.17
2019-04-23T15:04:57.582Z,8.60
2019-04-23T15:07:46.658Z,8.57
2019-04-23T15:10:41.099Z,8.47
2019-04-23T15:13:22.963Z,9.40
2019-04-23T15:22:04.776Z,9.70
2019-04-23T15:25:14.014Z,9.40
2019-04-23T15:28:03.408Z,8.83
2019-04-23T15:30:07.002Z,8.30
2019-04-23T15:33:27.220Z,9.10
2019-04-23T15:36:12.933Z,9.43
2019-04-23T15:38:53.432Z,9.80
2019-04-23T15:47:10.203Z,10.27
2019-04-23T15:49:59.492Z,11.00
2019-04-23T15:52:51.447Z,10.10
2019-04-23T15:55:33.887Z,10.23
2019-04-23T15:58:26.315Z,9.83
2019-04-23T16:03:39.877Z,10.50
2019-04-23T16:06:30.161Z,10.07
2019-04-23T16:09:46.175Z,10.73
2019-04-23T16:12:31.577Z,9.73
2019-04-23T16:15:37.330Z,10.03
2019-04-23T16:18:33.414Z,9.97
2019-04-23T16:21:10.207Z,9.63
2019-04-23T16:24:00.822Z,10.83
2019-04-23T16:26:50.365Z,9.60
2019-04-23T16:29:48.872Z,9.50
2019-04-23T16:32:28.394Z,9.30
2019-04-23T16:35:18.216Z,9.63
2019-04-23T16:41:15.498Z,9.97
2019-04-23T16:44:14.278Z,9.80
2019-04-23T16:46:56.288Z,10.77
2019-04-23T16:49:51.063Z,10.90
2019-04-23T16:55:27.056Z,11.07
2019-04-23T16:58:21.486Z,11.73
2019-04-23T17:01:03.658Z,11.67
2019-04-23T17:03:49.796Z,11.93
2019-04-23T17:06:29.356Z,10.57
2019-04-23T17:09:34.131Z,11.73
2019-04-23T17:12:10.406Z,11.57
2019-04-23T17:15:03.082Z,11.73
2019-04-23T17:17:45.152Z,11.37
2019-04-23T17:20:39.825Z,11.37
2019-04-23T17:26:13.486Z,12.30
2019-04-23T17:31:45.368Z,12.90
2019-04-23T17:34:47.223Z,11.77
2019-04-23T17:37:33.195Z,10.97
2019-04-23T17:40:46.689Z,13.30
2019-04-23T17:43:33.289Z,12.57
2019-04-23T17:46:24.782Z,11.63
2019-04-23T17:49:13.135Z,12.60
2019-04-23T17:51:56.057Z,12.73
2019-04-23T17:54:51.780Z,12.67
2019-04-23T18:00:25.499Z,12.40
2019-04-23T18:03:11.134Z,12.70
2019-04-23T18:08:53.992Z,13.67
2019-04-23T18:11:31.327Z,12.90
2019-04-23T18:14:30.963Z,13.73
2019-04-23T18:17:13.038Z,13.60
2019-04-23T18:20:34.824Z,13.17
2019-04-23T18:23:09.610Z,14.17
2019-04-23T18:25:54.606Z,13.03
2019-04-23T18:28:49.907Z,13.20
2019-04-23T18:31:36.699Z,13.67
2019-04-23T18:34:43.890Z,12.93
2019-04-23T18:37:28.081Z,13.37
2019-04-23T18:40:05.178Z,13.23
2019-04-23T18:43:08.771Z,13.13
2019-04-23T18:48:45.065Z,14.30
2019-04-23T18:51:21.410Z,13.23
2019-04-23T18:54:15.213Z,13.87
2019-04-23T18:59:57.124Z,13.27
2019-04-23T19:06:14.992Z,14.07
2019-04-23T19:12:30.162Z,13.60
2019-04-23T19:15:23.514Z,13.53
2019-04-23T19:18:18.939Z,13.70
2019-04-23T19:29:52.027Z,14.27
2019-04-23T19:32:46.710Z,14.27
2019-04-23T19:35:51.959Z,14.67
2019-04-23T19:38:21.372Z,14.43
2019-04-23T19:41:03.819Z,14.23
2019-04-23T19:43:55.942Z,13.93
2019-04-23T19:49:32.672Z,14.20
2019-04-23T19:52:20.350Z,14.37
2019-04-23T19:55:08.535Z,15.30
2019-04-23T19:58:04.985Z,14.77
2019-04-23T20:06:53.985Z,16.30
2019-04-23T20:12:05.993Z,15.77
2019-04-23T20:14:58.240Z,15.93
2019-04-23T20:17:42.624Z,17.03
2019-04-23T20:20:42.692Z,15.00
2019-04-23T20:23:52.572Z,16.30
2019-04-23T20:26:17.153Z,15.10
2019-04-23T20:33:38.530Z,15.67
2019-04-23T20:35:26.986Z,16.33
2019-04-23T20:41:11.878Z,16.60
2019-04-23T20:44:01.714Z,16.43
2019-04-23T20:46:52.368Z,16.00
2019-04-23T20:55:06.754Z,16.43
2019-04-23T20:58:20.884Z,16.20
2019-04-23T21:01:23.819Z,16.53
2019-04-23T21:04:11.689Z,17.30
2019-04-23T21:06:56.493Z,17.50
2019-04-23T21:10:01.188Z,16.83
2019-04-23T21:12:51.006Z,16.17
2019-04-23T21:18:17.245Z,17.00
2019-04-23T21:23:51.092Z,17.47
2019-04-23T21:26:37.219Z,17.37
2019-04-23T21:29:33.867Z,16.87
2019-04-23T21:32:14.869Z,17.27
2019-04-23T21:35:16.826Z,16.80
2019-04-23T21:37:54.002Z,16.63
2019-04-23T21:44:05.503Z,16.90
2019-04-23T21:52:07.968Z,17.17
2019-04-23T21:57:53.601Z,16.03
2019-04-23T22:00:41.207Z,17.40
2019-04-23T22:08:59.157Z,17.00
2019-04-23T22:11:56.946Z,17.40
2019-04-23T22:14:33.352Z,16.87
2019-04-23T22:20:26.039Z,17.10
2019-04-23T22:23:05.414Z,16.20
2019-04-23T22:25:56.431Z,16.80
2019-04-23T22:28:43.436Z,17.23
2019-04-23T22:31:31.448Z,16.37
2019-04-23T22:37:09.844Z,15.77
2019-04-23T22:45:27.058Z,17.13
2019-04-23T22:48:17.949Z,16.97
2019-04-23T22:53:50.839Z,16.90
2019-04-23T22:56:44.011Z,15.90
2019-04-23T22:59:51.809Z,16.87
2019-04-23T23:02:44.636Z,17.00
2019-04-23T23:05:29.412Z,17.20
2019-04-23T23:08:10.901Z,17.40
2019-04-23T23:14:09.575Z,17.10
2019-04-23T23:16:27.839Z,17.10
2019-04-23T23:19:28.515Z,16.57
2019-04-23T23:25:05.783Z,17.13
2019-04-23T23:27:52.137Z,16.27
2019-04-23T23:30:38.850Z,16.53
2019-04-23T23:33:24.772Z,16.67
2019-04-23T23:36:18.025Z,15.73
2019-04-23T23:42:03.010Z,16.80
2019-04-23T23:47:19.642Z,16.70
2019-04-23T23:53:04.279Z,15.60
2019-04-23T23:56:00.550Z,15.70
2019-04-23T23:58:53.970Z,15.10
